KGSB

Seymour Johnson AFB Airport

Goldsboro, North Carolina, USA
METAR KGSB 150256Z AUTO 00000KT 10SM CLR 22/21 A3001 RMK AO2 SLP164 T02230214 51016 $
Observed Flight Rules
Aug-15 @ 02:56 UTC (38 minutes ago) Visual Flight Rules
Visibility Clouds
10 miles
  • Clear skies
Temperatures Readings
Current 22°C / 72°F
Dewpoint 21°C / 70°F
Humidity 94%
Altimeter 30.01" Hg
Pressure 1016.4 hPa
Elevation 33
METAR KGSB 150256Z AUTO 00000KT 10SM CLR 22/21 A3001 RMK AO2 SLP164 T02230214 51016 $
Observed Flight Rules
Aug-15 @ 02:56 UTC
(38 minutes ago)
VFR
Clouds
  • Clear skies
Temperature Dewpoint
22°C / 72°F 21°C / 70°F
Humidity Altimeter Pressure
94% 30.01" Hg 1016.4 hPa